sensor_id;sensor_type;location;lat;lon;timestamp;P1;durP1;ratioP1;P2;durP2;ratioP2
12896;SDS011;6516;35.028;32.372;2023-05-24T00:02:06;25.52;;;9.23;;
12896;SDS011;6516;35.028;32.372;2023-05-24T00:04:34;24.65;;;9.60;;
12896;SDS011;6516;35.028;32.372;2023-05-24T00:07:02;33.53;;;10.30;;
12896;SDS011;6516;35.028;32.372;2023-05-24T00:09:31;29.10;;;10.33;;
12896;SDS011;6516;35.028;32.372;2023-05-24T00:11:59;32.20;;;9.30;;
12896;SDS011;6516;35.028;32.372;2023-05-24T00:14:28;32.83;;;10.18;;
12896;SDS011;6516;35.028;32.372;2023-05-24T00:16:56;30.30;;;9.52;;
12896;SDS011;6516;35.028;32.372;2023-05-24T00:19:24;31.55;;;10.18;;
12896;SDS011;6516;35.028;32.372;2023-05-24T00:21:51;29.50;;;9.20;;
12896;SDS011;6516;35.028;32.372;2023-05-24T00:24:19;29.60;;;9.38;;
12896;SDS011;6516;35.028;32.372;2023-05-24T00:26:47;27.80;;;9.07;;
12896;SDS011;6516;35.028;32.372;2023-05-24T00:29:15;27.98;;;10.13;;
12896;SDS011;6516;35.028;32.372;2023-05-24T00:31:44;29.95;;;9.85;;
12896;SDS011;6516;35.028;32.372;2023-05-24T00:34:12;33.00;;;9.80;;
12896;SDS011;6516;35.028;32.372;2023-05-24T00:36:40;28.50;;;8.82;;
12896;SDS011;6516;35.028;32.372;2023-05-24T00:39:08;28.55;;;9.43;;
12896;SDS011;6516;35.028;32.372;2023-05-24T00:41:35;32.33;;;8.75;;
12896;SDS011;6516;35.028;32.372;2023-05-24T00:44:06;28.10;;;9.35;;
12896;SDS011;6516;35.028;32.372;2023-05-24T00:46:35;30.30;;;8.30;;
12896;SDS011;6516;35.028;32.372;2023-05-24T00:49:05;27.08;;;7.68;;
12896;SDS011;6516;35.028;32.372;2023-05-24T00:51:33;24.65;;;7.93;;
12896;SDS011;6516;35.028;32.372;2023-05-24T00:54:02;24.55;;;7.70;;
12896;SDS011;6516;35.028;32.372;2023-05-24T00:56:31;17.35;;;7.40;;
12896;SDS011;6516;35.028;32.372;2023-05-24T00:58:59;23.50;;;7.73;;
12896;SDS011;6516;35.028;32.372;2023-05-24T01:01:27;27.27;;;8.18;;
12896;SDS011;6516;35.028;32.372;2023-05-24T01:03:56;24.50;;;8.57;;
12896;SDS011;6516;35.028;32.372;2023-05-24T01:06:25;27.60;;;8.75;;
12896;SDS011;6516;35.028;32.372;2023-05-24T01:09:01;24.25;;;8.93;;
12896;SDS011;6516;35.028;32.372;2023-05-24T01:11:49;23.03;;;9.37;;
12896;SDS011;6516;35.028;32.372;2023-05-24T01:14:31;23.80;;;8.27;;
12896;SDS011;6516;35.028;32.372;2023-05-24T01:17:09;28.40;;;8.85;;
12896;SDS011;6516;35.028;32.372;2023-05-24T01:19:51;19.48;;;8.10;;
12896;SDS011;6516;35.028;32.372;2023-05-24T01:22:46;24.45;;;8.32;;
12896;SDS011;6516;35.028;32.372;2023-05-24T01:25:48;20.20;;;8.70;;
12896;SDS011;6516;35.028;32.372;2023-05-24T01:28:36;23.15;;;8.13;;
12896;SDS011;6516;35.028;32.372;2023-05-24T01:31:08;20.60;;;8.57;;
12896;SDS011;6516;35.028;32.372;2023-05-24T01:33:39;21.90;;;8.32;;
12896;SDS011;6516;35.028;32.372;2023-05-24T01:36:08;26.65;;;9.00;;
12896;SDS011;6516;35.028;32.372;2023-05-24T01:38:38;24.97;;;8.73;;
12896;SDS011;6516;35.028;32.372;2023-05-24T01:41:09;26.98;;;8.80;;
12896;SDS011;6516;35.028;32.372;2023-05-24T01:43:54;32.63;;;8.52;;
12896;SDS011;6516;35.028;32.372;2023-05-24T01:46:30;25.25;;;8.68;;
12896;SDS011;6516;35.028;32.372;2023-05-24T01:49:05;27.00;;;9.27;;
12896;SDS011;6516;35.028;32.372;2023-05-24T01:51:43;28.83;;;9.20;;
12896;SDS011;6516;35.028;32.372;2023-05-24T01:54:18;29.48;;;10.20;;
12896;SDS011;6516;35.028;32.372;2023-05-24T01:56:49;30.63;;;9.52;;
12896;SDS011;6516;35.028;32.372;2023-05-24T01:59:21;30.45;;;9.43;;
12896;SDS011;6516;35.028;32.372;2023-05-24T02:01:52;30.77;;;9.00;;
12896;SDS011;6516;35.028;32.372;2023-05-24T02:04:20;23.80;;;8.53;;
12896;SDS011;6516;35.028;32.372;2023-05-24T02:06:48;29.20;;;9.35;;
12896;SDS011;6516;35.028;32.372;2023-05-24T02:09:16;27.55;;;9.50;;
12896;SDS011;6516;35.028;32.372;2023-05-24T02:11:44;30.33;;;9.48;;
12896;SDS011;6516;35.028;32.372;2023-05-24T02:14:12;26.50;;;9.18;;
12896;SDS011;6516;35.028;32.372;2023-05-24T02:16:43;27.33;;;8.70;;
12896;SDS011;6516;35.028;32.372;2023-05-24T02:19:11;30.02;;;9.65;;
12896;SDS011;6516;35.028;32.372;2023-05-24T02:21:38;33.42;;;9.38;;
12896;SDS011;6516;35.028;32.372;2023-05-24T02:24:06;28.80;;;9.02;;
12896;SDS011;6516;35.028;32.372;2023-05-24T02:26:35;29.50;;;9.13;;
12896;SDS011;6516;35.028;32.372;2023-05-24T02:29:03;29.07;;;9.30;;
12896;SDS011;6516;35.028;32.372;2023-05-24T02:31:31;35.15;;;9.90;;
12896;SDS011;6516;35.028;32.372;2023-05-24T02:34:02;27.83;;;9.82;;
12896;SDS011;6516;35.028;32.372;2023-05-24T02:36:29;30.05;;;9.43;;
12896;SDS011;6516;35.028;32.372;2023-05-24T02:39:00;27.08;;;9.88;;
12896;SDS011;6516;35.028;32.372;2023-05-24T02:41:29;32.17;;;10.03;;
12896;SDS011;6516;35.028;32.372;2023-05-24T02:43:56;30.55;;;8.98;;
12896;SDS011;6516;35.028;32.372;2023-05-24T02:46:24;26.83;;;9.90;;
12896;SDS011;6516;35.028;32.372;2023-05-24T02:48:52;26.15;;;9.43;;
12896;SDS011;6516;35.028;32.372;2023-05-24T02:51:21;30.42;;;9.93;;
12896;SDS011;6516;35.028;32.372;2023-05-24T02:53:49;31.60;;;10.30;;
12896;SDS011;6516;35.028;32.372;2023-05-24T02:56:17;32.17;;;9.95;;
12896;SDS011;6516;35.028;32.372;2023-05-24T02:58:46;27.48;;;10.27;;
12896;SDS011;6516;35.028;32.372;2023-05-24T03:01:14;29.67;;;10.05;;
12896;SDS011;6516;35.028;32.372;2023-05-24T03:03:41;27.00;;;9.95;;
12896;SDS011;6516;35.028;32.372;2023-05-24T03:06:09;31.73;;;9.73;;
12896;SDS011;6516;35.028;32.372;2023-05-24T03:08:39;27.52;;;9.65;;
12896;SDS011;6516;35.028;32.372;2023-05-24T03:11:07;29.60;;;10.18;;
12896;SDS011;6516;35.028;32.372;2023-05-24T03:13:35;26.15;;;9.75;;
12896;SDS011;6516;35.028;32.372;2023-05-24T03:16:03;29.13;;;9.68;;
12896;SDS011;6516;35.028;32.372;2023-05-24T03:18:31;29.43;;;9.93;;
12896;SDS011;6516;35.028;32.372;2023-05-24T03:20:59;25.67;;;9.32;;
12896;SDS011;6516;35.028;32.372;2023-05-24T03:23:27;29.02;;;9.73;;
12896;SDS011;6516;35.028;32.372;2023-05-24T03:25:56;34.00;;;9.93;;
12896;SDS011;6516;35.028;32.372;2023-05-24T03:28:24;29.52;;;10.05;;
12896;SDS011;6516;35.028;32.372;2023-05-24T03:30:51;32.93;;;10.33;;
12896;SDS011;6516;35.028;32.372;2023-05-24T03:33:19;26.40;;;9.45;;
12896;SDS011;6516;35.028;32.372;2023-05-24T03:35:47;31.27;;;10.15;;
12896;SDS011;6516;35.028;32.372;2023-05-24T03:38:15;33.90;;;10.38;;
12896;SDS011;6516;35.028;32.372;2023-05-24T03:40:42;29.67;;;9.75;;
12896;SDS011;6516;35.028;32.372;2023-05-24T03:43:12;36.33;;;10.87;;
12896;SDS011;6516;35.028;32.372;2023-05-24T03:45:39;28.75;;;9.80;;
12896;SDS011;6516;35.028;32.372;2023-05-24T03:48:07;36.90;;;10.68;;
12896;SDS011;6516;35.028;32.372;2023-05-24T03:50:35;30.05;;;10.43;;
12896;SDS011;6516;35.028;32.372;2023-05-24T03:53:03;26.85;;;9.82;;
12896;SDS011;6516;35.028;32.372;2023-05-24T03:55:31;26.97;;;10.03;;
12896;SDS011;6516;35.028;32.372;2023-05-24T03:57:58;26.77;;;9.30;;
12896;SDS011;6516;35.028;32.372;2023-05-24T04:00:27;28.70;;;8.88;;
12896;SDS011;6516;35.028;32.372;2023-05-24T04:02:55;26.30;;;9.55;;
12896;SDS011;6516;35.028;32.372;2023-05-24T04:05:24;29.35;;;8.77;;
12896;SDS011;6516;35.028;32.372;2023-05-24T04:07:54;23.93;;;9.03;;
12896;SDS011;6516;35.028;32.372;2023-05-24T04:10:21;23.80;;;8.27;;
12896;SDS011;6516;35.028;32.372;2023-05-24T04:12:49;27.52;;;8.40;;
12896;SDS011;6516;35.028;32.372;2023-05-24T04:15:17;25.60;;;7.60;;
12896;SDS011;6516;35.028;32.372;2023-05-24T04:17:47;23.10;;;8.05;;
12896;SDS011;6516;35.028;32.372;2023-05-24T04:20:19;18.43;;;7.10;;
12896;SDS011;6516;35.028;32.372;2023-05-24T04:22:48;18.38;;;7.07;;
12896;SDS011;6516;35.028;32.372;2023-05-24T04:25:16;21.95;;;7.32;;
12896;SDS011;6516;35.028;32.372;2023-05-24T04:27:43;20.60;;;6.93;;
12896;SDS011;6516;35.028;32.372;2023-05-24T04:30:13;24.95;;;7.68;;
12896;SDS011;6516;35.028;32.372;2023-05-24T04:32:41;20.77;;;6.73;;
12896;SDS011;6516;35.028;32.372;2023-05-24T04:35:11;19.55;;;6.68;;
12896;SDS011;6516;35.028;32.372;2023-05-24T04:37:41;19.80;;;7.05;;
12896;SDS011;6516;35.028;32.372;2023-05-24T04:40:10;23.98;;;7.07;;
12896;SDS011;6516;35.028;32.372;2023-05-24T04:42:40;23.38;;;6.47;;
12896;SDS011;6516;35.028;32.372;2023-05-24T04:45:09;18.23;;;5.93;;
12896;SDS011;6516;35.028;32.372;2023-05-24T04:47:37;18.50;;;5.93;;
12896;SDS011;6516;35.028;32.372;2023-05-24T04:50:05;17.25;;;6.05;;
12896;SDS011;6516;35.028;32.372;2023-05-24T04:52:35;19.02;;;6.28;;
12896;SDS011;6516;35.028;32.372;2023-05-24T04:55:03;19.08;;;6.07;;
12896;SDS011;6516;35.028;32.372;2023-05-24T04:57:31;19.93;;;6.03;;
12896;SDS011;6516;35.028;32.372;2023-05-24T04:59:59;19.45;;;5.70;;
12896;SDS011;6516;35.028;32.372;2023-05-24T05:02:28;21.48;;;5.85;;
12896;SDS011;6516;35.028;32.372;2023-05-24T05:04:56;23.30;;;6.10;;
12896;SDS011;6516;35.028;32.372;2023-05-24T05:07:24;24.10;;;6.85;;
12896;SDS011;6516;35.028;32.372;2023-05-24T05:09:53;20.03;;;5.77;;
12896;SDS011;6516;35.028;32.372;2023-05-24T05:12:21;19.95;;;6.22;;
12896;SDS011;6516;35.028;32.372;2023-05-24T05:14:48;20.75;;;5.88;;
12896;SDS011;6516;35.028;32.372;2023-05-24T05:17:16;22.58;;;6.22;;
12896;SDS011;6516;35.028;32.372;2023-05-24T05:19:44;22.30;;;5.65;;
12896;SDS011;6516;35.028;32.372;2023-05-24T05:22:12;22.43;;;5.27;;
12896;SDS011;6516;35.028;32.372;2023-05-24T05:24:40;20.65;;;5.90;;
12896;SDS011;6516;35.028;32.372;2023-05-24T05:27:10;19.83;;;5.75;;
12896;SDS011;6516;35.028;32.372;2023-05-24T05:29:38;18.55;;;5.70;;
12896;SDS011;6516;35.028;32.372;2023-05-24T05:32:06;23.27;;;6.18;;
12896;SDS011;6516;35.028;32.372;2023-05-24T05:34:36;18.90;;;5.53;;
12896;SDS011;6516;35.028;32.372;2023-05-24T05:37:04;16.65;;;5.78;;
12896;SDS011;6516;35.028;32.372;2023-05-24T05:39:31;20.73;;;6.30;;
12896;SDS011;6516;35.028;32.372;2023-05-24T05:41:59;20.75;;;5.82;;
12896;SDS011;6516;35.028;32.372;2023-05-24T05:44:29;19.33;;;5.65;;
12896;SDS011;6516;35.028;32.372;2023-05-24T05:46:56;26.87;;;6.10;;
12896;SDS011;6516;35.028;32.372;2023-05-24T05:49:24;18.30;;;5.07;;
12896;SDS011;6516;35.028;32.372;2023-05-24T05:51:53;19.10;;;5.90;;
12896;SDS011;6516;35.028;32.372;2023-05-24T05:54:21;19.00;;;5.78;;
12896;SDS011;6516;35.028;32.372;2023-05-24T05:56:48;22.88;;;5.80;;
12896;SDS011;6516;35.028;32.372;2023-05-24T05:59:16;22.07;;;5.73;;
12896;SDS011;6516;35.028;32.372;2023-05-24T06:01:45;20.50;;;5.50;;
12896;SDS011;6516;35.028;32.372;2023-05-24T06:04:13;34.45;;;6.65;;
12896;SDS011;6516;35.028;32.372;2023-05-24T06:06:41;22.20;;;6.00;;
12896;SDS011;6516;35.028;32.372;2023-05-24T06:09:13;29.02;;;6.70;;
12896;SDS011;6516;35.028;32.372;2023-05-24T06:11:42;19.73;;;5.90;;
12896;SDS011;6516;35.028;32.372;2023-05-24T06:14:10;22.75;;;6.18;;
12896;SDS011;6516;35.028;32.372;2023-05-24T06:16:42;18.80;;;6.05;;
12896;SDS011;6516;35.028;32.372;2023-05-24T06:19:13;20.48;;;5.43;;
12896;SDS011;6516;35.028;32.372;2023-05-24T06:21:42;21.60;;;6.35;;
12896;SDS011;6516;35.028;32.372;2023-05-24T06:24:12;20.67;;;5.97;;
12896;SDS011;6516;35.028;32.372;2023-05-24T06:26:42;22.00;;;5.80;;
12896;SDS011;6516;35.028;32.372;2023-05-24T06:29:09;21.98;;;6.22;;
12896;SDS011;6516;35.028;32.372;2023-05-24T06:31:38;27.90;;;7.47;;
12896;SDS011;6516;35.028;32.372;2023-05-24T06:34:05;24.80;;;6.60;;
12896;SDS011;6516;35.028;32.372;2023-05-24T06:36:35;21.83;;;6.43;;
12896;SDS011;6516;35.028;32.372;2023-05-24T06:39:05;19.42;;;6.28;;
12896;SDS011;6516;35.028;32.372;2023-05-24T06:41:33;23.17;;;7.22;;
12896;SDS011;6516;35.028;32.372;2023-05-24T06:44:01;23.35;;;6.88;;
12896;SDS011;6516;35.028;32.372;2023-05-24T06:46:29;19.15;;;6.65;;
12896;SDS011;6516;35.028;32.372;2023-05-24T06:48:57;23.93;;;6.40;;
12896;SDS011;6516;35.028;32.372;2023-05-24T06:51:24;24.63;;;6.35;;
12896;SDS011;6516;35.028;32.372;2023-05-24T06:53:54;21.88;;;5.95;;
12896;SDS011;6516;35.028;32.372;2023-05-24T06:56:21;15.48;;;5.70;;
12896;SDS011;6516;35.028;32.372;2023-05-24T06:58:49;20.08;;;6.00;;
12896;SDS011;6516;35.028;32.372;2023-05-24T07:01:17;16.83;;;5.20;;
12896;SDS011;6516;35.028;32.372;2023-05-24T07:03:45;18.42;;;5.60;;
12896;SDS011;6516;35.028;32.372;2023-05-24T07:06:13;21.77;;;5.45;;
12896;SDS011;6516;35.028;32.372;2023-05-24T07:08:42;20.27;;;5.53;;
12896;SDS011;6516;35.028;32.372;2023-05-24T07:11:11;26.20;;;6.30;;
12896;SDS011;6516;35.028;32.372;2023-05-24T07:13:40;21.13;;;5.73;;
12896;SDS011;6516;35.028;32.372;2023-05-24T07:16:07;18.00;;;5.50;;
12896;SDS011;6516;35.028;32.372;2023-05-24T07:18:36;22.45;;;5.78;;
12896;SDS011;6516;35.028;32.372;2023-05-24T07:21:05;17.35;;;5.30;;
12896;SDS011;6516;35.028;32.372;2023-05-24T07:23:33;20.42;;;6.18;;
12896;SDS011;6516;35.028;32.372;2023-05-24T07:26:01;21.60;;;5.73;;
12896;SDS011;6516;35.028;32.372;2023-05-24T07:28:31;23.73;;;6.13;;
12896;SDS011;6516;35.028;32.372;2023-05-24T07:31:02;21.15;;;5.65;;
12896;SDS011;6516;35.028;32.372;2023-05-24T07:33:30;22.50;;;5.35;;
12896;SDS011;6516;35.028;32.372;2023-05-24T07:35:58;19.55;;;5.43;;
12896;SDS011;6516;35.028;32.372;2023-05-24T07:38:27;19.17;;;5.70;;
12896;SDS011;6516;35.028;32.372;2023-05-24T07:40:55;19.38;;;5.78;;
12896;SDS011;6516;35.028;32.372;2023-05-24T07:43:25;21.48;;;6.10;;
12896;SDS011;6516;35.028;32.372;2023-05-24T07:45:54;18.50;;;5.50;;
12896;SDS011;6516;35.028;32.372;2023-05-24T07:48:22;22.98;;;5.55;;
12896;SDS011;6516;35.028;32.372;2023-05-24T07:50:51;22.13;;;6.07;;
12896;SDS011;6516;35.028;32.372;2023-05-24T07:53:19;22.33;;;5.80;;
12896;SDS011;6516;35.028;32.372;2023-05-24T07:55:47;22.73;;;6.03;;
12896;SDS011;6516;35.028;32.372;2023-05-24T07:58:16;25.55;;;6.00;;
12896;SDS011;6516;35.028;32.372;2023-05-24T08:00:43;21.55;;;5.80;;
12896;SDS011;6516;35.028;32.372;2023-05-24T08:03:13;22.93;;;6.03;;
12896;SDS011;6516;35.028;32.372;2023-05-24T08:05:41;20.67;;;5.70;;
12896;SDS011;6516;35.028;32.372;2023-05-24T08:08:09;21.23;;;6.15;;
12896;SDS011;6516;35.028;32.372;2023-05-24T08:10:38;22.45;;;6.18;;
12896;SDS011;6516;35.028;32.372;2023-05-24T08:13:06;23.88;;;5.85;;
12896;SDS011;6516;35.028;32.372;2023-05-24T08:15:33;19.63;;;5.67;;
12896;SDS011;6516;35.028;32.372;2023-05-24T08:18:01;23.83;;;6.28;;
12896;SDS011;6516;35.028;32.372;2023-05-24T08:20:31;17.77;;;5.80;;
12896;SDS011;6516;35.028;32.372;2023-05-24T08:23:00;21.55;;;5.88;;
12896;SDS011;6516;35.028;32.372;2023-05-24T08:25:28;19.42;;;5.28;;
12896;SDS011;6516;35.028;32.372;2023-05-24T08:27:56;18.43;;;5.73;;
12896;SDS011;6516;35.028;32.372;2023-05-24T08:30:23;20.08;;;5.68;;
12896;SDS011;6516;35.028;32.372;2023-05-24T08:32:51;22.98;;;6.82;;
12896;SDS011;6516;35.028;32.372;2023-05-24T08:35:19;17.35;;;5.70;;
12896;SDS011;6516;35.028;32.372;2023-05-24T08:37:48;18.95;;;5.85;;
12896;SDS011;6516;35.028;32.372;2023-05-24T08:40:16;24.57;;;5.97;;
12896;SDS011;6516;35.028;32.372;2023-05-24T08:42:44;20.45;;;5.85;;
12896;SDS011;6516;35.028;32.372;2023-05-24T08:45:13;16.95;;;5.38;;
12896;SDS011;6516;35.028;32.372;2023-05-24T08:47:41;21.95;;;5.80;;
12896;SDS011;6516;35.028;32.372;2023-05-24T08:50:09;18.08;;;5.90;;
12896;SDS011;6516;35.028;32.372;2023-05-24T08:52:39;23.47;;;6.20;;
12896;SDS011;6516;35.028;32.372;2023-05-24T08:55:10;19.88;;;5.85;;
12896;SDS011;6516;35.028;32.372;2023-05-24T08:57:38;21.65;;;5.80;;
12896;SDS011;6516;35.028;32.372;2023-05-24T09:00:07;26.08;;;6.35;;
12896;SDS011;6516;35.028;32.372;2023-05-24T09:02:37;22.58;;;6.00;;
12896;SDS011;6516;35.028;32.372;2023-05-24T09:05:07;19.53;;;5.33;;
12896;SDS011;6516;35.028;32.372;2023-05-24T09:07:38;16.65;;;5.47;;
12896;SDS011;6516;35.028;32.372;2023-05-24T09:10:08;21.83;;;5.47;;
12896;SDS011;6516;35.028;32.372;2023-05-24T09:12:38;19.33;;;5.97;;
12896;SDS011;6516;35.028;32.372;2023-05-24T09:15:10;19.35;;;5.70;;
12896;SDS011;6516;35.028;32.372;2023-05-24T09:17:38;25.77;;;6.27;;
12896;SDS011;6516;35.028;32.372;2023-05-24T09:20:07;15.98;;;5.53;;
12896;SDS011;6516;35.028;32.372;2023-05-24T09:22:36;21.63;;;6.07;;
12896;SDS011;6516;35.028;32.372;2023-05-24T09:25:04;22.40;;;5.70;;
12896;SDS011;6516;35.028;32.372;2023-05-24T09:27:35;20.60;;;5.68;;
12896;SDS011;6516;35.028;32.372;2023-05-24T09:30:05;21.87;;;5.53;;
12896;SDS011;6516;35.028;32.372;2023-05-24T09:32:36;23.15;;;6.10;;
12896;SDS011;6516;35.028;32.372;2023-05-24T09:35:07;16.58;;;5.90;;
12896;SDS011;6516;35.028;32.372;2023-05-24T09:37:35;23.08;;;6.13;;
12896;SDS011;6516;35.028;32.372;2023-05-24T09:40:05;20.38;;;5.72;;
12896;SDS011;6516;35.028;32.372;2023-05-24T09:42:36;20.17;;;5.80;;
12896;SDS011;6516;35.028;32.372;2023-05-24T09:45:05;23.75;;;5.63;;
12896;SDS011;6516;35.028;32.372;2023-05-24T09:47:35;23.92;;;6.07;;
12896;SDS011;6516;35.028;32.372;2023-05-24T09:50:04;16.75;;;4.85;;
12896;SDS011;6516;35.028;32.372;2023-05-24T09:52:39;20.55;;;5.75;;
12896;SDS011;6516;35.028;32.372;2023-05-24T09:55:11;19.80;;;4.90;;
12896;SDS011;6516;35.028;32.372;2023-05-24T09:57:41;20.58;;;6.00;;
12896;SDS011;6516;35.028;32.372;2023-05-24T10:00:10;18.17;;;5.32;;
12896;SDS011;6516;35.028;32.372;2023-05-24T10:02:41;21.73;;;5.68;;
12896;SDS011;6516;35.028;32.372;2023-05-24T10:05:10;20.92;;;5.57;;
12896;SDS011;6516;35.028;32.372;2023-05-24T10:07:39;18.57;;;5.40;;
12896;SDS011;6516;35.028;32.372;2023-05-24T10:10:07;18.85;;;5.38;;
12896;SDS011;6516;35.028;32.372;2023-05-24T10:12:37;17.95;;;5.18;;
12896;SDS011;6516;35.028;32.372;2023-05-24T10:15:10;18.98;;;5.07;;
12896;SDS011;6516;35.028;32.372;2023-05-24T10:17:38;17.70;;;5.25;;
12896;SDS011;6516;35.028;32.372;2023-05-24T10:20:07;18.97;;;5.37;;
12896;SDS011;6516;35.028;32.372;2023-05-24T10:22:38;18.65;;;4.95;;
12896;SDS011;6516;35.028;32.372;2023-05-24T10:25:10;17.83;;;5.32;;
12896;SDS011;6516;35.028;32.372;2023-05-24T10:27:47;18.48;;;5.25;;
12896;SDS011;6516;35.028;32.372;2023-05-24T10:30:21;18.67;;;5.13;;
12896;SDS011;6516;35.028;32.372;2023-05-24T10:32:58;22.23;;;5.30;;
12896;SDS011;6516;35.028;32.372;2023-05-24T10:35:27;21.98;;;5.35;;
12896;SDS011;6516;35.028;32.372;2023-05-24T10:37:56;21.67;;;5.60;;
12896;SDS011;6516;35.028;32.372;2023-05-24T10:40:24;18.40;;;5.60;;
12896;SDS011;6516;35.028;32.372;2023-05-24T10:42:54;17.95;;;5.25;;
12896;SDS011;6516;35.028;32.372;2023-05-24T10:45:32;19.97;;;5.17;;
12896;SDS011;6516;35.028;32.372;2023-05-24T10:54:11;19.92;;;4.90;;
12896;SDS011;6516;35.028;32.372;2023-05-24T10:56:43;16.52;;;5.00;;
12896;SDS011;6516;35.028;32.372;2023-05-24T10:59:30;19.83;;;5.50;;
12896;SDS011;6516;35.028;32.372;2023-05-24T11:02:04;19.30;;;5.38;;
12896;SDS011;6516;35.028;32.372;2023-05-24T11:04:38;18.27;;;5.07;;
12896;SDS011;6516;35.028;32.372;2023-05-24T11:07:07;19.52;;;5.57;;
12896;SDS011;6516;35.028;32.372;2023-05-24T11:09:37;15.55;;;5.40;;
12896;SDS011;6516;35.028;32.372;2023-05-24T11:12:14;15.87;;;5.10;;
12896;SDS011;6516;35.028;32.372;2023-05-24T11:14:47;21.17;;;5.53;;
12896;SDS011;6516;35.028;32.372;2023-05-24T11:17:17;19.05;;;5.15;;
12896;SDS011;6516;35.028;32.372;2023-05-24T11:19:48;20.90;;;5.43;;
12896;SDS011;6516;35.028;32.372;2023-05-24T11:22:18;23.67;;;6.25;;
12896;SDS011;6516;35.028;32.372;2023-05-24T11:24:47;20.13;;;4.97;;
12896;SDS011;6516;35.028;32.372;2023-05-24T11:27:15;22.00;;;5.63;;
12896;SDS011;6516;35.028;32.372;2023-05-24T11:29:43;17.70;;;5.30;;
12896;SDS011;6516;35.028;32.372;2023-05-24T11:32:14;20.10;;;5.50;;
12896;SDS011;6516;35.028;32.372;2023-05-24T11:34:44;17.95;;;5.55;;
12896;SDS011;6516;35.028;32.372;2023-05-24T11:37:12;21.00;;;5.40;;
12896;SDS011;6516;35.028;32.372;2023-05-24T11:39:41;22.13;;;5.60;;
12896;SDS011;6516;35.028;32.372;2023-05-24T11:42:08;18.85;;;5.57;;
12896;SDS011;6516;35.028;32.372;2023-05-24T11:44:36;19.08;;;5.20;;
12896;SDS011;6516;35.028;32.372;2023-05-24T11:47:06;18.80;;;5.43;;
12896;SDS011;6516;35.028;32.372;2023-05-24T11:49:34;22.20;;;5.67;;
12896;SDS011;6516;35.028;32.372;2023-05-24T11:52:02;26.88;;;5.60;;
12896;SDS011;6516;35.028;32.372;2023-05-24T11:54:30;19.70;;;5.20;;
12896;SDS011;6516;35.028;32.372;2023-05-24T11:56:59;18.90;;;5.60;;
12896;SDS011;6516;35.028;32.372;2023-05-24T11:59:27;19.45;;;5.85;;
12896;SDS011;6516;35.028;32.372;2023-05-24T12:01:56;19.37;;;5.80;;
12896;SDS011;6516;35.028;32.372;2023-05-24T12:04:27;21.00;;;5.93;;
12896;SDS011;6516;35.028;32.372;2023-05-24T12:06:55;17.75;;;5.65;;
12896;SDS011;6516;35.028;32.372;2023-05-24T12:09:24;19.83;;;5.30;;
12896;SDS011;6516;35.028;32.372;2023-05-24T12:11:52;21.15;;;5.93;;
12896;SDS011;6516;35.028;32.372;2023-05-24T12:14:22;19.60;;;5.70;;
12896;SDS011;6516;35.028;32.372;2023-05-24T12:16:55;20.02;;;5.82;;
12896;SDS011;6516;35.028;32.372;2023-05-24T12:19:23;22.40;;;5.85;;
12896;SDS011;6516;35.028;32.372;2023-05-24T12:21:55;22.65;;;5.68;;
12896;SDS011;6516;35.028;32.372;2023-05-24T12:24:24;19.58;;;5.93;;
12896;SDS011;6516;35.028;32.372;2023-05-24T12:26:56;18.47;;;5.57;;
12896;SDS011;6516;35.028;32.372;2023-05-24T12:29:31;21.50;;;6.18;;
12896;SDS011;6516;35.028;32.372;2023-05-24T12:32:00;18.90;;;5.47;;
12896;SDS011;6516;35.028;32.372;2023-05-24T12:34:30;16.90;;;5.38;;
12896;SDS011;6516;35.028;32.372;2023-05-24T12:36:58;19.63;;;5.95;;
12896;SDS011;6516;35.028;32.372;2023-05-24T12:39:27;25.87;;;6.00;;
12896;SDS011;6516;35.028;32.372;2023-05-24T12:41:58;20.63;;;5.88;;
12896;SDS011;6516;35.028;32.372;2023-05-24T12:44:27;23.23;;;6.13;;
12896;SDS011;6516;35.028;32.372;2023-05-24T12:46:56;22.52;;;6.72;;
12896;SDS011;6516;35.028;32.372;2023-05-24T12:49:24;21.90;;;6.13;;
12896;SDS011;6516;35.028;32.372;2023-05-24T12:51:54;22.20;;;5.80;;
12896;SDS011;6516;35.028;32.372;2023-05-24T12:54:23;20.77;;;6.05;;
12896;SDS011;6516;35.028;32.372;2023-05-24T12:56:53;23.48;;;6.32;;
12896;SDS011;6516;35.028;32.372;2023-05-24T12:59:24;19.48;;;5.78;;
12896;SDS011;6516;35.028;32.372;2023-05-24T13:01:52;24.13;;;6.43;;
12896;SDS011;6516;35.028;32.372;2023-05-24T13:04:21;19.50;;;5.90;;
12896;SDS011;6516;35.028;32.372;2023-05-24T13:06:50;20.67;;;6.00;;
12896;SDS011;6516;35.028;32.372;2023-05-24T13:09:20;22.92;;;5.70;;
12896;SDS011;6516;35.028;32.372;2023-05-24T13:11:49;22.23;;;6.25;;
12896;SDS011;6516;35.028;32.372;2023-05-24T13:14:18;21.63;;;5.97;;
12896;SDS011;6516;35.028;32.372;2023-05-24T13:16:46;18.93;;;5.33;;
12896;SDS011;6516;35.028;32.372;2023-05-24T13:19:14;20.65;;;6.07;;
12896;SDS011;6516;35.028;32.372;2023-05-24T13:21:42;22.20;;;6.15;;
12896;SDS011;6516;35.028;32.372;2023-05-24T13:24:11;20.58;;;5.25;;
12896;SDS011;6516;35.028;32.372;2023-05-24T13:26:42;16.67;;;5.57;;
12896;SDS011;6516;35.028;32.372;2023-05-24T13:29:11;25.73;;;6.17;;
12896;SDS011;6516;35.028;32.372;2023-05-24T13:31:39;21.17;;;6.38;;
12896;SDS011;6516;35.028;32.372;2023-05-24T13:34:06;21.38;;;5.90;;
12896;SDS011;6516;35.028;32.372;2023-05-24T13:36:35;21.27;;;6.65;;
12896;SDS011;6516;35.028;32.372;2023-05-24T13:39:03;18.10;;;5.75;;
12896;SDS011;6516;35.028;32.372;2023-05-24T13:41:34;20.97;;;6.30;;
12896;SDS011;6516;35.028;32.372;2023-05-24T13:44:03;21.35;;;5.57;;
12896;SDS011;6516;35.028;32.372;2023-05-24T13:46:31;22.92;;;6.95;;
12896;SDS011;6516;35.028;32.372;2023-05-24T13:49:00;20.77;;;5.60;;
12896;SDS011;6516;35.028;32.372;2023-05-24T13:51:28;21.05;;;5.95;;
12896;SDS011;6516;35.028;32.372;2023-05-24T13:53:56;20.70;;;6.07;;
12896;SDS011;6516;35.028;32.372;2023-05-24T13:56:24;21.17;;;6.15;;
12896;SDS011;6516;35.028;32.372;2023-05-24T13:58:56;26.33;;;6.00;;
12896;SDS011;6516;35.028;32.372;2023-05-24T14:01:26;16.25;;;5.80;;
12896;SDS011;6516;35.028;32.372;2023-05-24T14:03:54;16.70;;;5.82;;
12896;SDS011;6516;35.028;32.372;2023-05-24T14:06:22;19.87;;;6.07;;
12896;SDS011;6516;35.028;32.372;2023-05-24T14:08:50;19.52;;;6.10;;
12896;SDS011;6516;35.028;32.372;2023-05-24T14:11:18;21.50;;;6.00;;
12896;SDS011;6516;35.028;32.372;2023-05-24T14:13:46;21.90;;;6.38;;
12896;SDS011;6516;35.028;32.372;2023-05-24T14:16:14;23.33;;;5.93;;
12896;SDS011;6516;35.028;32.372;2023-05-24T14:18:44;25.43;;;6.43;;
12896;SDS011;6516;35.028;32.372;2023-05-24T14:21:13;22.17;;;6.68;;
12896;SDS011;6516;35.028;32.372;2023-05-24T14:23:40;24.05;;;6.53;;
12896;SDS011;6516;35.028;32.372;2023-05-24T14:26:08;16.58;;;5.72;;
12896;SDS011;6516;35.028;32.372;2023-05-24T14:28:36;25.95;;;6.93;;
12896;SDS011;6516;35.028;32.372;2023-05-24T14:31:04;17.87;;;5.83;;
12896;SDS011;6516;35.028;32.372;2023-05-24T14:33:31;19.95;;;5.97;;
12896;SDS011;6516;35.028;32.372;2023-05-24T14:36:00;21.25;;;6.18;;
12896;SDS011;6516;35.028;32.372;2023-05-24T14:38:28;17.15;;;5.85;;
12896;SDS011;6516;35.028;32.372;2023-05-24T14:40:56;19.40;;;6.43;;
12896;SDS011;6516;35.028;32.372;2023-05-24T14:43:25;24.90;;;5.93;;
12896;SDS011;6516;35.028;32.372;2023-05-24T14:45:53;21.55;;;5.75;;
12896;SDS011;6516;35.028;32.372;2023-05-24T14:48:21;18.75;;;5.60;;
12896;SDS011;6516;35.028;32.372;2023-05-24T14:50:48;21.35;;;6.05;;
12896;SDS011;6516;35.028;32.372;2023-05-24T14:53:18;22.63;;;6.03;;